createdAt,value
2022-07-25T00:01:52.258Z,99875.75
2022-07-25T00:05:55.557Z,99881.28
2022-07-25T00:09:58.730Z,99877.88
2022-07-25T00:14:03.696Z,99882.72
2022-07-25T00:18:07.191Z,99880.22
2022-07-25T00:22:10.311Z,99878.09
2022-07-25T00:26:14.478Z,99875.66
2022-07-25T00:30:18.956Z,99869.47
2022-07-25T00:34:22.280Z,99872.16
2022-07-25T00:38:25.446Z,99861.47
2022-07-25T00:42:29.444Z,99861.59
2022-07-25T00:46:34.111Z,99852.69
2022-07-25T00:50:38.030Z,99856.50
2022-07-25T00:54:41.103Z,99853.19
2022-07-25T00:58:46.817Z,99857.13
2022-07-25T01:02:51.533Z,99853.03
2022-07-25T01:06:54.817Z,99851.53
2022-07-25T01:10:57.940Z,99849.13
2022-07-25T01:15:01.346Z,99846.84
2022-07-25T01:19:05.810Z,99841.75
2022-07-25T01:23:10.506Z,99841.94
2022-07-25T01:27:17.424Z,99843.97
2022-07-25T01:31:20.800Z,99847.84
2022-07-25T01:35:24.444Z,99841.97
2022-07-25T01:39:28.946Z,99847.78
2022-07-25T01:43:32.223Z,99842.75
2022-07-25T01:47:35.317Z,99835.75
2022-07-25T01:51:38.431Z,99838.66
2022-07-25T01:55:43.052Z,99830.19
2022-07-25T01:59:46.164Z,99829.53
2022-07-25T02:03:49.269Z,99824.34
2022-07-25T02:07:53.572Z,99820.94
2022-07-25T02:11:58.265Z,99822.03
2022-07-25T02:16:01.647Z,99832.38
2022-07-25T02:20:05.433Z,99819.25
2022-07-25T02:24:09.457Z,99824.69
2022-07-25T02:28:14.327Z,99823.94
2022-07-25T02:32:17.617Z,99825.91
2022-07-25T02:36:20.895Z,99824.34
2022-07-25T02:40:24.312Z,99831.22
2022-07-25T02:44:28.994Z,99834.97
2022-07-25T02:48:32.328Z,99828.13
2022-07-25T02:52:35.461Z,99836.53
2022-07-25T02:56:38.548Z,99833.13
2022-07-25T03:00:44.362Z,99835.00
2022-07-25T03:04:47.719Z,99832.38
2022-07-25T03:08:51.043Z,99829.91
2022-07-25T03:12:54.705Z,99825.59
2022-07-25T03:16:59.294Z,99826.63
2022-07-25T03:21:02.684Z,99827.72
2022-07-25T03:25:06.644Z,99828.81
2022-07-25T03:29:19.313Z,99825.44
2022-07-25T03:33:23.786Z,99829.16
2022-07-25T03:37:27.694Z,99829.28
2022-07-25T03:41:30.951Z,99829.56
2022-07-25T03:45:35.066Z,99818.97
2022-07-25T03:49:39.582Z,99823.59
2022-07-25T03:54:00.188Z,99829.97
2022-07-25T03:58:03.274Z,99819.38
2022-07-25T04:02:06.463Z,99824.97
2022-07-25T04:06:11.511Z,99827.69
2022-07-25T04:10:14.608Z,99831.41
2022-07-25T04:14:17.723Z,99827.97
2022-07-25T04:18:22.299Z,99820.06
2022-07-25T04:22:32.070Z,99819.13
2022-07-25T04:26:35.151Z,99821.06
2022-07-25T04:30:38.743Z,99822.78
2022-07-25T04:34:43.745Z,99816.50
2022-07-25T04:38:48.336Z,99823.59
2022-07-25T04:42:51.509Z,99822.00
2022-07-25T04:46:55.184Z,99818.50
2022-07-25T04:50:58.327Z,99821.19
2022-07-25T04:59:07.436Z,99816.38
2022-07-25T05:03:10.546Z,99815.38
2022-07-25T05:07:14.202Z,99814.47
2022-07-25T05:11:18.714Z,99812.53
2022-07-25T05:15:22.469Z,99806.16
2022-07-25T05:19:26.127Z,99799.59
2022-07-25T05:23:29.396Z,99799.22
2022-07-25T05:27:34.103Z,99795.19
2022-07-25T05:31:37.454Z,99802.63
2022-07-25T05:35:41.877Z,99797.66
2022-07-25T05:39:45.508Z,99796.91
2022-07-25T05:43:50.194Z,99792.44
2022-07-25T05:47:53.312Z,99793.06
2022-07-25T05:51:56.571Z,99790.03
2022-07-25T05:55:59.848Z,99780.97
2022-07-25T06:00:06.282Z,99782.72
2022-07-25T06:04:09.712Z,99786.09
2022-07-25T06:08:13.432Z,99784.91
2022-07-25T06:12:16.548Z,99779.28
2022-07-25T06:16:22.074Z,99785.28
2022-07-25T06:20:25.239Z,99778.50
2022-07-25T06:24:28.420Z,99770.72
2022-07-25T06:28:31.764Z,99761.28
2022-07-25T06:32:36.235Z,99754.78
2022-07-25T06:36:39.485Z,99758.78
2022-07-25T06:40:42.616Z,99754.13
2022-07-25T06:44:45.728Z,99763.00
2022-07-25T06:48:50.965Z,99753.38
2022-07-25T06:52:55.066Z,99752.31
2022-07-25T06:56:58.206Z,99755.31
2022-07-25T07:01:02.358Z,99733.25
2022-07-25T07:05:07.850Z,99727.16
2022-07-25T07:09:11.264Z,99718.00
2022-07-25T07:13:23.730Z,99726.88
2022-07-25T07:17:27.590Z,99717.66
2022-07-25T07:21:32.198Z,99718.78
2022-07-25T07:25:35.745Z,99724.16
2022-07-25T07:29:39.075Z,99711.19
2022-07-25T07:33:42.378Z,99721.88
2022-07-25T07:37:47.875Z,99709.31
2022-07-25T07:41:53.898Z,99698.06
2022-07-25T07:45:59.397Z,99702.13
2022-07-25T07:50:02.615Z,99697.31
2022-07-25T07:54:24.736Z,99694.59
2022-07-25T07:58:28.031Z,99691.06
2022-07-25T08:02:31.588Z,99687.59
2022-07-25T08:06:34.849Z,99680.34
2022-07-25T08:10:43.113Z,99681.59
2022-07-25T08:14:46.288Z,99677.69
2022-07-25T08:18:49.497Z,99675.06
2022-07-25T08:22:56.406Z,99658.06
2022-07-25T08:27:01.483Z,99660.53
2022-07-25T08:31:04.687Z,99656.13
2022-07-25T08:35:11.495Z,99646.50
2022-07-25T08:39:14.789Z,99641.31
2022-07-25T08:43:20.551Z,99633.84
2022-07-25T08:47:24.407Z,99639.16
2022-07-25T08:51:28.259Z,99637.53
2022-07-25T08:55:31.431Z,99631.81
2022-07-25T08:59:36.158Z,99605.22
2022-07-25T09:03:40.408Z,99610.19
2022-07-25T09:07:43.571Z,99607.69
2022-07-25T09:11:46.638Z,99599.34
2022-07-25T09:15:53.776Z,99598.28
2022-07-25T09:19:58.728Z,99587.94
2022-07-25T09:24:09.891Z,99577.66
2022-07-25T09:28:18.052Z,99575.47
2022-07-25T09:32:25.407Z,99574.50
2022-07-25T09:36:28.568Z,99564.94
2022-07-25T09:40:32.032Z,99562.13
2022-07-25T09:44:35.492Z,99564.28
2022-07-25T09:48:45.342Z,99549.09
2022-07-25T09:52:49.135Z,99550.25
2022-07-25T09:56:53.520Z,99551.00
2022-07-25T10:01:01.931Z,99556.31
2022-07-25T10:05:14.547Z,99535.25
2022-07-25T10:09:18.314Z,99535.94
2022-07-25T10:13:31.015Z,99537.78
2022-07-25T10:17:35.233Z,99523.16
2022-07-25T10:21:40.027Z,99535.19
2022-07-25T10:25:48.830Z,99524.84
2022-07-25T10:29:55.084Z,99522.81
2022-07-25T10:34:00.260Z,99508.72
2022-07-25T10:38:06.615Z,99507.28
2022-07-25T10:42:14.789Z,99498.47
2022-07-25T10:46:22.950Z,99494.66
2022-07-25T10:50:53.426Z,99490.72
2022-07-25T10:54:57.936Z,99478.50
2022-07-25T10:59:03.021Z,99488.22
2022-07-25T11:03:06.791Z,99472.78
2022-07-25T11:07:10.716Z,99463.50
2022-07-25T11:11:15.374Z,99464.03
2022-07-25T11:15:24.044Z,99459.03
2022-07-25T11:19:30.291Z,99443.59
2022-07-25T11:23:33.489Z,99437.69
2022-07-25T11:27:37.947Z,99428.66
2022-07-25T11:31:41.563Z,99427.31
2022-07-25T11:35:45.016Z,99425.84
2022-07-25T11:39:49.481Z,99416.91
2022-07-25T11:43:53.982Z,99397.31
2022-07-25T11:48:05.985Z,99398.22
2022-07-25T11:52:20.160Z,99398.13
2022-07-25T12:00:51.160Z,99387.81
2022-07-25T12:04:59.337Z,99373.69
2022-07-25T12:09:18.018Z,99366.22
2022-07-25T12:13:26.504Z,99359.72
2022-07-25T12:17:31.821Z,99356.34
2022-07-25T12:21:34.911Z,99348.47
2022-07-25T12:25:40.086Z,99339.28
2022-07-25T12:29:43.251Z,99340.31
2022-07-25T12:33:49.092Z,99316.88
2022-07-25T12:37:53.016Z,99315.31
2022-07-25T12:41:56.521Z,99312.22
2022-07-25T12:45:59.662Z,99299.59
2022-07-25T12:50:05.228Z,99315.50
2022-07-25T12:54:08.767Z,99306.94
2022-07-25T12:58:15.307Z,99304.34
2022-07-25T13:02:18.448Z,99297.66
2022-07-25T13:06:23.666Z,99277.66
2022-07-25T13:10:26.904Z,99282.13
2022-07-25T13:14:30.531Z,99263.44
2022-07-25T13:18:33.883Z,99269.78
2022-07-25T13:22:38.608Z,99268.06
2022-07-25T13:26:41.978Z,99247.88
2022-07-25T13:30:45.103Z,99243.94
2022-07-25T13:34:48.506Z,99234.34
2022-07-25T13:38:53.045Z,99231.78
2022-07-25T13:42:56.151Z,99226.63
2022-07-25T13:46:59.752Z,99220.31
2022-07-25T13:51:03.017Z,99216.34
2022-07-25T13:55:10.396Z,99211.75
2022-07-25T13:59:20.362Z,99201.63
2022-07-25T14:03:24.235Z,99194.97
2022-07-25T14:07:27.487Z,99189.16
2022-07-25T14:11:32.004Z,99184.53
2022-07-25T14:15:35.398Z,99189.34
2022-07-25T14:19:38.708Z,99180.59
2022-07-25T14:23:42.059Z,99168.78
2022-07-25T14:27:46.537Z,99169.47
2022-07-25T14:31:49.774Z,99162.09
2022-07-25T14:35:53.254Z,99149.28
2022-07-25T14:39:56.347Z,99151.47
2022-07-25T14:44:00.977Z,99148.75
2022-07-25T14:48:04.187Z,99142.41
2022-07-25T14:52:07.607Z,99136.94
2022-07-25T14:56:11.321Z,99126.00
2022-07-25T15:00:16.829Z,99124.09
2022-07-25T15:04:22.147Z,99126.00
2022-07-25T15:08:25.560Z,99110.25
2022-07-25T15:12:28.642Z,99111.94
2022-07-25T15:16:33.282Z,99101.69
2022-07-25T15:20:36.652Z,99096.91
2022-07-25T15:25:16.849Z,99105.63
2022-07-25T15:29:03.093Z,99095.50
2022-07-25T15:33:07.715Z,99089.91
2022-07-25T15:37:11.820Z,99083.19
2022-07-25T15:41:14.936Z,99076.38
2022-07-25T15:45:36.500Z,99077.00
2022-07-25T15:49:41.210Z,99078.22
2022-07-25T15:53:44.368Z,99081.78
2022-07-25T15:57:47.724Z,99079.72
2022-07-25T16:01:50.855Z,99078.53
2022-07-25T16:05:56.696Z,99079.19
2022-07-25T16:09:59.991Z,99072.50
2022-07-25T16:14:03.391Z,99062.91
2022-07-25T16:18:07.132Z,99064.44
2022-07-25T16:22:11.855Z,99070.41
2022-07-25T16:26:15.232Z,99056.53
2022-07-25T16:30:18.881Z,99058.91
2022-07-25T16:34:27.086Z,99065.88
2022-07-25T16:38:34.301Z,99050.84
2022-07-25T16:42:38.028Z,99046.91
2022-07-25T16:46:42.226Z,99045.50
2022-07-25T16:50:45.432Z,99043.44
2022-07-25T16:54:50.353Z,99044.59
2022-07-25T16:58:53.925Z,99050.75
2022-07-25T17:02:57.203Z,99047.47
2022-07-25T17:07:00.503Z,99038.22
2022-07-25T17:11:06.312Z,99033.06
2022-07-25T17:15:10.752Z,99029.97
2022-07-25T17:19:14.122Z,99035.75
2022-07-25T17:23:17.354Z,99027.88
2022-07-25T17:27:22.087Z,99025.66
2022-07-25T17:31:25.488Z,99023.25
2022-07-25T17:35:29.212Z,99017.41
2022-07-25T17:39:33.576Z,99019.09
2022-07-25T17:43:38.445Z,99020.41
2022-07-25T17:47:41.884Z,99009.09
2022-07-25T17:51:45.146Z,99003.44
2022-07-25T17:55:48.221Z,99004.22
2022-07-25T17:59:52.858Z,98996.00
2022-07-25T18:03:55.939Z,98993.91
2022-07-25T18:07:59.374Z,98993.84
2022-07-25T18:12:02.475Z,98985.56
2022-07-25T18:16:09.257Z,98983.78
2022-07-25T18:20:14.054Z,98987.16
2022-07-25T18:24:17.170Z,98987.94
2022-07-25T18:28:20.597Z,98992.44
2022-07-25T18:32:25.122Z,98984.19
2022-07-25T18:36:29.707Z,98990.59
2022-07-25T18:40:33.187Z,98994.25
2022-07-25T18:44:36.460Z,98997.53
2022-07-25T18:48:43.556Z,99000.16
2022-07-25T18:52:46.809Z,99001.25
2022-07-25T18:56:50.144Z,99003.72
2022-07-25T19:00:53.493Z,98999.91
2022-07-25T19:04:58.309Z,98995.38
2022-07-25T19:09:01.689Z,99006.84
2022-07-25T19:13:04.808Z,99008.13
2022-07-25T19:17:07.960Z,99002.59
2022-07-25T19:21:12.611Z,99014.38
2022-07-25T19:25:15.949Z,99015.13
2022-07-25T19:29:19.518Z,99025.19
2022-07-25T19:33:22.692Z,99019.47
2022-07-25T19:37:27.232Z,99012.19
2022-07-25T19:41:31.575Z,99011.03
2022-07-25T19:45:34.675Z,99013.31
2022-07-25T19:49:39.578Z,99012.19
2022-07-25T19:53:44.095Z,99006.78
2022-07-25T19:57:47.279Z,99014.53
2022-07-25T20:01:50.478Z,99009.66
2022-07-25T20:05:53.704Z,98999.06
2022-07-25T20:09:58.339Z,98993.03
2022-07-25T20:14:01.903Z,98986.47
2022-07-25T20:18:05.607Z,98994.19
2022-07-25T20:22:08.911Z,98984.16
2022-07-25T20:26:14.233Z,98976.44
2022-07-25T20:30:18.085Z,98984.28
2022-07-25T20:34:21.859Z,98981.00
2022-07-25T20:38:28.522Z,98984.16
2022-07-25T20:42:33.178Z,98975.59
2022-07-25T20:46:36.769Z,98978.72
2022-07-25T20:50:40.556Z,98981.84
2022-07-25T20:54:43.899Z,98976.69
2022-07-25T20:58:48.556Z,98976.13
2022-07-25T21:02:51.917Z,98978.38
2022-07-25T21:06:56.737Z,98981.78
2022-07-25T21:11:00.008Z,98978.63
2022-07-25T21:15:05.631Z,98985.63
2022-07-25T21:19:09.150Z,98988.28
2022-07-25T21:23:12.590Z,98981.56
2022-07-25T21:27:15.768Z,98982.09
2022-07-25T21:31:20.712Z,98975.38
2022-07-25T21:35:24.119Z,98976.94
2022-07-25T21:39:27.493Z,98983.03
2022-07-25T21:43:31.462Z,98977.41
2022-07-25T21:47:36.188Z,98977.94
2022-07-25T21:51:40.933Z,98979.47
2022-07-25T21:55:44.487Z,98977.31
2022-07-25T21:59:47.613Z,98982.41
2022-07-25T22:03:52.966Z,98981.34
2022-07-25T22:07:56.411Z,98992.00
2022-07-25T22:12:00.208Z,98992.66
2022-07-25T22:16:03.632Z,98999.41
2022-07-25T22:20:09.814Z,98998.94
2022-07-25T22:24:13.403Z,98993.22
2022-07-25T22:28:16.888Z,98997.28
2022-07-25T22:32:20.186Z,98998.94
2022-07-25T22:36:24.614Z,98992.44
2022-07-25T22:40:27.679Z,98996.06
2022-07-25T22:44:30.981Z,98986.84
2022-07-25T22:48:34.192Z,98982.91
2022-07-25T22:52:38.890Z,98985.13
2022-07-25T22:56:42.228Z,98975.56
2022-07-25T23:00:45.595Z,98980.22
2022-07-25T23:04:49.007Z,98978.75
2022-07-25T23:08:54.091Z,98986.16
2022-07-25T23:12:57.125Z,98990.09
2022-07-25T23:17:20.050Z,98995.91
2022-07-25T23:21:23.268Z,98984.59
2022-07-25T23:25:27.909Z,98976.97
2022-07-25T23:29:31.027Z,98974.28
2022-07-25T23:33:34.667Z,98976.38
2022-07-25T23:37:37.830Z,98976.63
2022-07-25T23:41:42.350Z,98967.78
2022-07-25T23:45:45.619Z,98968.22
2022-07-25T23:49:50.992Z,98972.19
2022-07-25T23:53:54.184Z,98969.22
2022-07-25T23:57:58.935Z,98966.38
